Kenneth S. Settoon — WDD7467 — position and weather

sailwx.info

Track history (hours):
 
Tides and Currents Weather Stations Pressure Air Temp Water Temp Dewpoint Dewpoint Depression Visibility Wind Speed Wind Dir Waves Ship Positions

Kenneth S. Settoon

Owner: Settoon Towing, L.L.C., Pierre Part, LA. More information available from US FCC via Universal Licensing System and Coast Guard Vessel Documentation Center.

Last reported at 2017-Oct-22 07:32 UTC. Time now 2017-Oct-22 23:00 UTC.
Position N 29°34' W 090°34'.

Length 14 m; draft 3 m.

Type: Tug. MMSI: 367186840.

Date/timePositionNaut miles runAvg speedWind from/ knotsBaromVisibWave heightAir tempDewpointWater temp
2017-Oct-22 07:32N 29°34' W 090°34'1 6.6
2017-Oct-22 07:23N 29°35' W 090°35'2 5.4
2017-Oct-22 07:00N 29°35' W 090°38'2 3.7
2017-Oct-22 06:30N 29°36' W 090°40'0 0.5
2017-Oct-22 06:00N 29°36' W 090°40'0 0.5
2017-Oct-22 05:31N 29°36' W 090°40'3 5.3
2017-Oct-22 05:01N 29°36' W 090°43'3 5.4
2017-Oct-22 04:31N 29°34' W 090°44'3 5.1
2017-Oct-22 04:00N 29°32' W 090°46'  
2017-Oct-19 23:38N 29°49' W 092°04'1 6.6
2017-Oct-19 23:30N 29°48' W 092°05'3 6.4
2017-Oct-19 23:00N 29°47' W 092°08'3 6.0
2017-Oct-19 22:30N 29°47' W 092°11'2 3.3
2017-Oct-19 22:00N 29°47' W 092°13'1 1.5
2017-Oct-19 21:30N 29°48' W 092°14'2 3.3
2017-Oct-19 20:58N 29°47' W 092°16'3 0.1
2017-Oct-18 19:36N 29°45' W 092°18'0 4.9
2017-Oct-18 19:30N 29°45' W 092°17'2 3.9
2017-Oct-18 18:59N 29°47' W 092°16'2 3.6
2017-Oct-18 18:30N 29°48' W 092°15'2 4.6
2017-Oct-18 18:00N 29°47' W 092°12'1 1.3
2017-Oct-18 17:30N 29°47' W 092°12'1 1.1
2017-Oct-18 17:00N 29°47' W 092°11'0 0.3
2017-Oct-18 16:30N 29°47' W 092°11'0 0.0
2017-Oct-18 16:00N 29°47' W 092°11'1 1.7
2017-Oct-18 15:30N 29°47' W 092°10'  
2017-Oct-14 19:05N 29°32' W 090°48'1 7.6
2017-Oct-14 19:00N 29°32' W 090°47'3 6.6
2017-Oct-14 18:30N 29°34' W 090°44'3 5.7
2017-Oct-14 18:00N 29°36' W 090°43'0 1.0
2017-Oct-14 17:30N 29°37' W 090°42'0 0.0
2017-Oct-14 17:00N 29°37' W 090°42'0 0.0
2017-Oct-14 16:30N 29°37' W 090°42'2 4.9
2017-Oct-14 16:00N 29°36' W 090°40'0 0.3
2017-Oct-14 15:30N 29°36' W 090°40'0 0.0
2017-Oct-14 15:00N 29°36' W 090°40'0 0.0
2017-Oct-14 14:30N 29°36' W 090°40'0 0.0
2017-Oct-14 13:59N 29°36' W 090°40'0 0.0
2017-Oct-14 13:30N 29°36' W 090°40'0 0.0
2017-Oct-14 13:00N 29°36' W 090°40'0 0.0
2017-Oct-14 12:30N 29°36' W 090°40'0 0.0
2017-Oct-14 12:00N 29°36' W 090°40'0 0.0
2017-Oct-14 11:28N 29°36' W 090°40'0 0.0
2017-Oct-14 10:58N 29°36' W 090°40'0 0.0
2017-Oct-14 10:30N 29°36' W 090°40'0 0.0
2017-Oct-14 10:00N 29°36' W 090°40'0 0.0
2017-Oct-14 09:27N 29°36' W 090°40'0 0.0
2017-Oct-14 08:57N 29°36' W 090°40'0 0.0
2017-Oct-14 08:29N 29°36' W 090°40'0 0.0
2017-Oct-14 08:00N 29°36' W 090°40'0 0.0
2017-Oct-14 07:30N 29°36' W 090°40'0 0.0
2017-Oct-14 07:00N 29°36' W 090°40'0 0.0
2017-Oct-14 06:28N 29°36' W 090°40'0 0.0
2017-Oct-14 06:00N 29°36' W 090°40'0 0.0
2017-Oct-14 05:30N 29°36' W 090°40'0 0.0
2017-Oct-14 05:00N 29°36' W 090°40'0 0.0
2017-Oct-14 04:28N 29°36' W 090°40'0 0.0
2017-Oct-14 04:00N 29°36' W 090°40'0 0.0
2017-Oct-14 03:30N 29°36' W 090°40'0 0.0
2017-Oct-14 03:00N 29°36' W 090°40'0 0.0
2017-Oct-14 02:29N 29°36' W 090°40'0 0.0
2017-Oct-14 01:59N 29°36' W 090°40'0 0.0
2017-Oct-14 01:28N 29°36' W 090°40'0 0.0
2017-Oct-14 01:01N 29°36' W 090°40'0 0.0
2017-Oct-14 00:30N 29°36' W 090°40'0 0.0
2017-Oct-14 00:00N 29°36' W 090°40'0 0.0
2017-Oct-13 23:30N 29°36' W 090°40'0 0.0
2017-Oct-13 23:00N 29°36' W 090°40'1 2.6
2017-Oct-13 22:30N 29°35' W 090°38'3 6.0
2017-Oct-13 22:00N 29°35' W 090°35'  
Track history (hours):
 
Tides and Currents Weather Stations Pressure Air Temp Water Temp Dewpoint Dewpoint Depression Visibility Wind Speed Wind Dir Waves Ship Positions

Kenneth S. Settoon

Owner: Settoon Towing, L.L.C., Pierre Part, LA. More information available from US FCC via Universal Licensing System and Coast Guard Vessel Documentation Center.

Last reported at 2017-Oct-22 07:32 UTC. Time now 2017-Oct-22 23:00 UTC.
Position N 29°34' W 090°34'.

Length 14 m; draft 3 m.

Type: Tug. MMSI: 367186840.

Date/timePositionNaut miles runAvg speedWind from/ knotsBaromVisibWave heightAir tempDewpointWater temp
2017-Oct-22 07:32N 29°34' W 090°34'1 6.6
2017-Oct-22 07:23N 29°35' W 090°35'2 5.4
2017-Oct-22 07:00N 29°35' W 090°38'2 3.7
2017-Oct-22 06:30N 29°36' W 090°40'0 0.5
2017-Oct-22 06:00N 29°36' W 090°40'0 0.5
2017-Oct-22 05:31N 29°36' W 090°40'3 5.3
2017-Oct-22 05:01N 29°36' W 090°43'3 5.4
2017-Oct-22 04:31N 29°34' W 090°44'3 5.1
2017-Oct-22 04:00N 29°32' W 090°46'  
2017-Oct-19 23:38N 29°49' W 092°04'1 6.6
2017-Oct-19 23:30N 29°48' W 092°05'3 6.4
2017-Oct-19 23:00N 29°47' W 092°08'3 6.0
2017-Oct-19 22:30N 29°47' W 092°11'2 3.3
2017-Oct-19 22:00N 29°47' W 092°13'1 1.5
2017-Oct-19 21:30N 29°48' W 092°14'2 3.3
2017-Oct-19 20:58N 29°47' W 092°16'3 0.1
2017-Oct-18 19:36N 29°45' W 092°18'0 4.9
2017-Oct-18 19:30N 29°45' W 092°17'2 3.9
2017-Oct-18 18:59N 29°47' W 092°16'2 3.6
2017-Oct-18 18:30N 29°48' W 092°15'2 4.6
2017-Oct-18 18:00N 29°47' W 092°12'1 1.3
2017-Oct-18 17:30N 29°47' W 092°12'1 1.1
2017-Oct-18 17:00N 29°47' W 092°11'0 0.3
2017-Oct-18 16:30N 29°47' W 092°11'0 0.0
2017-Oct-18 16:00N 29°47' W 092°11'1 1.7
2017-Oct-18 15:30N 29°47' W 092°10'  
2017-Oct-14 19:05N 29°32' W 090°48'1 7.6
2017-Oct-14 19:00N 29°32' W 090°47'3 6.6
2017-Oct-14 18:30N 29°34' W 090°44'3 5.7
2017-Oct-14 18:00N 29°36' W 090°43'0 1.0
2017-Oct-14 17:30N 29°37' W 090°42'0 0.0
2017-Oct-14 17:00N 29°37' W 090°42'0 0.0
2017-Oct-14 16:30N 29°37' W 090°42'2 4.9
2017-Oct-14 16:00N 29°36' W 090°40'0 0.3
2017-Oct-14 15:30N 29°36' W 090°40'0 0.0
2017-Oct-14 15:00N 29°36' W 090°40'0 0.0
2017-Oct-14 14:30N 29°36' W 090°40'0 0.0
2017-Oct-14 13:59N 29°36' W 090°40'0 0.0
2017-Oct-14 13:30N 29°36' W 090°40'0 0.0
2017-Oct-14 13:00N 29°36' W 090°40'0 0.0
2017-Oct-14 12:30N 29°36' W 090°40'0 0.0
2017-Oct-14 12:00N 29°36' W 090°40'0 0.0
2017-Oct-14 11:28N 29°36' W 090°40'0 0.0
2017-Oct-14 10:58N 29°36' W 090°40'0 0.0
2017-Oct-14 10:30N 29°36' W 090°40'0 0.0
2017-Oct-14 10:00N 29°36' W 090°40'0 0.0
2017-Oct-14 09:27N 29°36' W 090°40'0 0.0
2017-Oct-14 08:57N 29°36' W 090°40'0 0.0
2017-Oct-14 08:29N 29°36' W 090°40'0 0.0
2017-Oct-14 08:00N 29°36' W 090°40'0 0.0
2017-Oct-14 07:30N 29°36' W 090°40'0 0.0
2017-Oct-14 07:00N 29°36' W 090°40'0 0.0
2017-Oct-14 06:28N 29°36' W 090°40'0 0.0
2017-Oct-14 06:00N 29°36' W 090°40'0 0.0
2017-Oct-14 05:30N 29°36' W 090°40'0 0.0
2017-Oct-14 05:00N 29°36' W 090°40'0 0.0
2017-Oct-14 04:28N 29°36' W 090°40'0 0.0
2017-Oct-14 04:00N 29°36' W 090°40'0 0.0
2017-Oct-14 03:30N 29°36' W 090°40'0 0.0
2017-Oct-14 03:00N 29°36' W 090°40'0 0.0
2017-Oct-14 02:29N 29°36' W 090°40'0 0.0
2017-Oct-14 01:59N 29°36' W 090°40'0 0.0
2017-Oct-14 01:28N 29°36' W 090°40'0 0.0
2017-Oct-14 01:01N 29°36' W 090°40'0 0.0
2017-Oct-14 00:30N 29°36' W 090°40'0 0.0
2017-Oct-14 00:00N 29°36' W 090°40'0 0.0
2017-Oct-13 23:30N 29°36' W 090°40'0 0.0
2017-Oct-13 23:00N 29°36' W 090°40'1 2.6
2017-Oct-13 22:30N 29°35' W 090°38'3 6.0
2017-Oct-13 22:00N 29°35' W 090°35'  

Dump ship's entire track history